sensor_id;sensor_type;location;lat;lon;timestamp;temperature;humidity
14517;DHT22;7344;50.864;4.362;2023-02-28T00:01:19;1.50;1.00
14517;DHT22;7344;50.864;4.362;2023-02-28T00:03:44;1.50;1.00
14517;DHT22;7344;50.864;4.362;2023-02-28T00:06:10;1.50;1.00
14517;DHT22;7344;50.864;4.362;2023-02-28T00:08:36;1.40;1.00
14517;DHT22;7344;50.864;4.362;2023-02-28T00:11:04;1.40;1.00
14517;DHT22;7344;50.864;4.362;2023-02-28T00:13:30;1.40;1.00
14517;DHT22;7344;50.864;4.362;2023-02-28T00:16:03;1.30;1.00
14517;DHT22;7344;50.864;4.362;2023-02-28T00:18:29;1.30;1.00
14517;DHT22;7344;50.864;4.362;2023-02-28T00:20:55;1.30;1.00
14517;DHT22;7344;50.864;4.362;2023-02-28T00:23:20;1.30;1.00
14517;DHT22;7344;50.864;4.362;2023-02-28T00:25:46;1.20;1.00
14517;DHT22;7344;50.864;4.362;2023-02-28T00:28:12;1.20;1.00
14517;DHT22;7344;50.864;4.362;2023-02-28T00:30:37;1.20;1.00
14517;DHT22;7344;50.864;4.362;2023-02-28T00:33:03;1.20;1.00
14517;DHT22;7344;50.864;4.362;2023-02-28T00:35:28;1.20;1.00
14517;DHT22;7344;50.864;4.362;2023-02-28T00:37:54;1.10;1.00
14517;DHT22;7344;50.864;4.362;2023-02-28T00:40:19;1.10;1.00
14517;DHT22;7344;50.864;4.362;2023-02-28T00:42:45;1.10;1.00
14517;DHT22;7344;50.864;4.362;2023-02-28T00:45:11;1.10;1.00
14517;DHT22;7344;50.864;4.362;2023-02-28T00:47:36;1.10;1.00
14517;DHT22;7344;50.864;4.362;2023-02-28T00:50:03;1.10;1.00
14517;DHT22;7344;50.864;4.362;2023-02-28T00:52:28;1.10;1.00
14517;DHT22;7344;50.864;4.362;2023-02-28T00:54:54;1.10;1.00
14517;DHT22;7344;50.864;4.362;2023-02-28T00:57:20;1.10;1.00
14517;DHT22;7344;50.864;4.362;2023-02-28T00:59:45;1.10;1.00
14517;DHT22;7344;50.864;4.362;2023-02-28T01:02:11;1.10;1.00
14517;DHT22;7344;50.864;4.362;2023-02-28T01:04:36;1.10;1.00
14517;DHT22;7344;50.864;4.362;2023-02-28T01:07:02;1.10;1.00
14517;DHT22;7344;50.864;4.362;2023-02-28T01:09:28;1.00;1.00
14517;DHT22;7344;50.864;4.362;2023-02-28T01:11:53;1.00;1.00
14517;DHT22;7344;50.864;4.362;2023-02-28T01:14:19;1.00;1.00
14517;DHT22;7344;50.864;4.362;2023-02-28T01:16:45;1.00;1.00
14517;DHT22;7344;50.864;4.362;2023-02-28T01:19:11;1.00;1.00
14517;DHT22;7344;50.864;4.362;2023-02-28T01:21:36;1.00;1.00
14517;DHT22;7344;50.864;4.362;2023-02-28T01:24:04;1.00;1.00
14517;DHT22;7344;50.864;4.362;2023-02-28T01:26:30;0.90;1.00
14517;DHT22;7344;50.864;4.362;2023-02-28T01:28:56;0.90;1.00
14517;DHT22;7344;50.864;4.362;2023-02-28T01:31:22;0.80;1.00
14517;DHT22;7344;50.864;4.362;2023-02-28T01:33:49;0.80;1.00
14517;DHT22;7344;50.864;4.362;2023-02-28T01:36:17;0.80;1.00
14517;DHT22;7344;50.864;4.362;2023-02-28T01:38:44;0.70;1.00
14517;DHT22;7344;50.864;4.362;2023-02-28T01:41:19;0.70;1.00
14517;DHT22;7344;50.864;4.362;2023-02-28T01:46:11;0.70;1.00
14517;DHT22;7344;50.864;4.362;2023-02-28T01:48:41;0.60;1.00
14517;DHT22;7344;50.864;4.362;2023-02-28T01:51:22;0.70;1.00
14517;DHT22;7344;50.864;4.362;2023-02-28T01:53:54;0.60;1.00
14517;DHT22;7344;50.864;4.362;2023-02-28T01:56:26;0.60;1.00
14517;DHT22;7344;50.864;4.362;2023-02-28T01:58:53;0.60;1.00
14517;DHT22;7344;50.864;4.362;2023-02-28T02:01:21;0.60;1.00
14517;DHT22;7344;50.864;4.362;2023-02-28T02:03:56;0.60;1.00
14517;DHT22;7344;50.864;4.362;2023-02-28T02:06:26;0.60;1.00
14517;DHT22;7344;50.864;4.362;2023-02-28T02:08:52;0.60;1.00
14517;DHT22;7344;50.864;4.362;2023-02-28T02:11:20;0.60;1.00
14517;DHT22;7344;50.864;4.362;2023-02-28T02:19:37;0.50;1.00
14517;DHT22;7344;50.864;4.362;2023-02-28T02:39:53;0.40;1.00
14517;DHT22;7344;50.864;4.362;2023-02-28T02:42:30;0.40;1.40
14517;DHT22;7344;50.864;4.362;2023-02-28T02:45:06;0.40;2.20
14517;DHT22;7344;50.864;4.362;2023-02-28T02:47:33;0.40;2.50
14517;DHT22;7344;50.864;4.362;2023-02-28T02:50:04;0.40;3.40
14517;DHT22;7344;50.864;4.362;2023-02-28T02:52:36;0.30;4.70
14517;DHT22;7344;50.864;4.362;2023-02-28T02:55:05;0.30;7.10
14517;DHT22;7344;50.864;4.362;2023-02-28T02:58:00;0.30;6.70
14517;DHT22;7344;50.864;4.362;2023-02-28T03:00:30;0.30;7.20
14517;DHT22;7344;50.864;4.362;2023-02-28T03:02:57;0.20;8.10
14517;DHT22;7344;50.864;4.362;2023-02-28T03:05:29;0.20;10.10
14517;DHT22;7344;50.864;4.362;2023-02-28T03:07:55;0.20;10.30
14517;DHT22;7344;50.864;4.362;2023-02-28T03:13:04;0.20;12.70
14517;DHT22;7344;50.864;4.362;2023-02-28T03:21:36;0.10;15.80
14517;DHT22;7344;50.864;4.362;2023-02-28T03:24:16;0.10;16.50
14517;DHT22;7344;50.864;4.362;2023-02-28T03:26:47;0.10;18.70
14517;DHT22;7344;50.864;4.362;2023-02-28T03:29:46;0.00;20.50
14517;DHT22;7344;50.864;4.362;2023-02-28T03:32:29;0.00;23.30
14517;DHT22;7344;50.864;4.362;2023-02-28T03:35:14;0.00;24.30
14517;DHT22;7344;50.864;4.362;2023-02-28T03:37:46;0.00;23.70
14517;DHT22;7344;50.864;4.362;2023-02-28T03:40:24;0.00;23.20
14517;DHT22;7344;50.864;4.362;2023-02-28T03:42:56;0.00;22.30
14517;DHT22;7344;50.864;4.362;2023-02-28T03:45:27;0.00;22.90
14517;DHT22;7344;50.864;4.362;2023-02-28T03:47:57;0.00;24.10
14517;DHT22;7344;50.864;4.362;2023-02-28T03:50:39;-0.10;25.50
14517;DHT22;7344;50.864;4.362;2023-02-28T03:53:17;0.00;25.40
14517;DHT22;7344;50.864;4.362;2023-02-28T03:55:55;0.00;26.00
14517;DHT22;7344;50.864;4.362;2023-02-28T04:01:15;-0.10;28.10
14517;DHT22;7344;50.864;4.362;2023-02-28T04:03:42;-0.10;29.20
14517;DHT22;7344;50.864;4.362;2023-02-28T04:06:15;-0.10;29.90
14517;DHT22;7344;50.864;4.362;2023-02-28T04:08:41;-0.10;30.60
14517;DHT22;7344;50.864;4.362;2023-02-28T04:11:27;-0.10;31.60
14517;DHT22;7344;50.864;4.362;2023-02-28T04:13:55;-0.10;32.30
14517;DHT22;7344;50.864;4.362;2023-02-28T04:16:21;-0.10;31.80
14517;DHT22;7344;50.864;4.362;2023-02-28T04:18:47;-0.10;31.80
14517;DHT22;7344;50.864;4.362;2023-02-28T04:21:12;-0.20;34.10
14517;DHT22;7344;50.864;4.362;2023-02-28T04:23:38;-0.10;35.00
14517;DHT22;7344;50.864;4.362;2023-02-28T04:26:04;-0.10;34.30
14517;DHT22;7344;50.864;4.362;2023-02-28T04:28:31;-0.10;33.90
14517;DHT22;7344;50.864;4.362;2023-02-28T04:30:57;0.00;32.30
14517;DHT22;7344;50.864;4.362;2023-02-28T04:33:23;0.00;32.20
14517;DHT22;7344;50.864;4.362;2023-02-28T04:36:02;0.00;29.60
14517;DHT22;7344;50.864;4.362;2023-02-28T04:38:37;0.00;30.80
14517;DHT22;7344;50.864;4.362;2023-02-28T04:41:04;-0.10;31.20
14517;DHT22;7344;50.864;4.362;2023-02-28T04:43:30;-0.10;32.50
14517;DHT22;7344;50.864;4.362;2023-02-28T04:45:57;-0.10;33.30
14517;DHT22;7344;50.864;4.362;2023-02-28T04:48:28;-0.10;33.00
14517;DHT22;7344;50.864;4.362;2023-02-28T04:50:55;-0.10;33.50
14517;DHT22;7344;50.864;4.362;2023-02-28T04:53:20;-0.10;34.70
14517;DHT22;7344;50.864;4.362;2023-02-28T04:55:46;-0.10;34.50
14517;DHT22;7344;50.864;4.362;2023-02-28T04:58:13;-0.10;34.70
14517;DHT22;7344;50.864;4.362;2023-02-28T05:00:39;-0.10;34.90
14517;DHT22;7344;50.864;4.362;2023-02-28T05:03:05;0.00;34.40
14517;DHT22;7344;50.864;4.362;2023-02-28T05:05:30;0.00;34.90
14517;DHT22;7344;50.864;4.362;2023-02-28T05:07:56;0.00;34.80
14517;DHT22;7344;50.864;4.362;2023-02-28T05:10:22;0.00;34.70
14517;DHT22;7344;50.864;4.362;2023-02-28T05:12:48;0.10;35.20
14517;DHT22;7344;50.864;4.362;2023-02-28T05:15:15;0.20;32.50
14517;DHT22;7344;50.864;4.362;2023-02-28T05:17:41;0.20;31.00
14517;DHT22;7344;50.864;4.362;2023-02-28T05:20:08;0.30;29.40
14517;DHT22;7344;50.864;4.362;2023-02-28T05:22:37;0.40;26.60
14517;DHT22;7344;50.864;4.362;2023-02-28T05:25:04;0.40;25.50
14517;DHT22;7344;50.864;4.362;2023-02-28T05:27:31;0.50;25.60
14517;DHT22;7344;50.864;4.362;2023-02-28T05:29:56;0.50;20.50
14517;DHT22;7344;50.864;4.362;2023-02-28T05:32:22;0.70;19.30
14517;DHT22;7344;50.864;4.362;2023-02-28T05:34:48;0.70;15.30
14517;DHT22;7344;50.864;4.362;2023-02-28T05:37:14;0.70;4.70
14517;DHT22;7344;50.864;4.362;2023-02-28T05:39:41;0.70;5.30
14517;DHT22;7344;50.864;4.362;2023-02-28T05:42:07;0.70;4.30
14517;DHT22;7344;50.864;4.362;2023-02-28T05:44:33;0.60;6.70
14517;DHT22;7344;50.864;4.362;2023-02-28T05:46:58;0.70;6.80
14517;DHT22;7344;50.864;4.362;2023-02-28T05:49:24;0.60;5.30
14517;DHT22;7344;50.864;4.362;2023-02-28T05:51:50;0.60;5.10
14517;DHT22;7344;50.864;4.362;2023-02-28T05:54:15;0.60;7.90
14517;DHT22;7344;50.864;4.362;2023-02-28T05:56:41;0.60;7.60
14517;DHT22;7344;50.864;4.362;2023-02-28T05:59:10;0.50;8.60
14517;DHT22;7344;50.864;4.362;2023-02-28T06:01:40;0.50;9.00
14517;DHT22;7344;50.864;4.362;2023-02-28T06:04:08;0.60;11.20
14517;DHT22;7344;50.864;4.362;2023-02-28T06:06:35;0.60;11.20
14517;DHT22;7344;50.864;4.362;2023-02-28T06:09:01;0.60;9.40
14517;DHT22;7344;50.864;4.362;2023-02-28T06:11:27;0.60;8.80
14517;DHT22;7344;50.864;4.362;2023-02-28T06:13:57;0.60;9.20
14517;DHT22;7344;50.864;4.362;2023-02-28T06:16:26;0.60;7.40
14517;DHT22;7344;50.864;4.362;2023-02-28T06:18:52;0.70;8.50
14517;DHT22;7344;50.864;4.362;2023-02-28T06:21:21;0.80;6.10
14517;DHT22;7344;50.864;4.362;2023-02-28T06:23:47;0.80;3.80
14517;DHT22;7344;50.864;4.362;2023-02-28T06:26:13;0.80;4.50
14517;DHT22;7344;50.864;4.362;2023-02-28T06:28:39;0.80;2.10
14517;DHT22;7344;50.864;4.362;2023-02-28T06:31:09;0.90;2.90
14517;DHT22;7344;50.864;4.362;2023-02-28T06:33:36;0.90;1.00
14517;DHT22;7344;50.864;4.362;2023-02-28T06:36:02;0.90;1.00
14517;DHT22;7344;50.864;4.362;2023-02-28T06:38:28;0.90;1.00
14517;DHT22;7344;50.864;4.362;2023-02-28T06:40:55;0.90;1.00
14517;DHT22;7344;50.864;4.362;2023-02-28T06:43:21;0.90;1.00
14517;DHT22;7344;50.864;4.362;2023-02-28T06:45:47;0.90;1.00
14517;DHT22;7344;50.864;4.362;2023-02-28T06:48:12;0.90;1.00
14517;DHT22;7344;50.864;4.362;2023-02-28T06:50:38;1.00;1.00
14517;DHT22;7344;50.864;4.362;2023-02-28T06:53:04;1.00;1.00
14517;DHT22;7344;50.864;4.362;2023-02-28T06:55:29;1.10;1.00
14517;DHT22;7344;50.864;4.362;2023-02-28T06:57:55;1.10;1.00
14517;DHT22;7344;50.864;4.362;2023-02-28T07:00:21;1.20;1.00
14517;DHT22;7344;50.864;4.362;2023-02-28T07:02:46;1.30;1.00
14517;DHT22;7344;50.864;4.362;2023-02-28T07:05:13;1.30;1.00
14517;DHT22;7344;50.864;4.362;2023-02-28T07:07:38;1.40;1.00
14517;DHT22;7344;50.864;4.362;2023-02-28T07:10:12;1.50;1.00
14517;DHT22;7344;50.864;4.362;2023-02-28T07:12:40;1.50;1.00
14517;DHT22;7344;50.864;4.362;2023-02-28T07:15:06;1.60;1.00
14517;DHT22;7344;50.864;4.362;2023-02-28T07:17:32;1.80;1.00
14517;DHT22;7344;50.864;4.362;2023-02-28T07:19:57;2.20;1.00
14517;DHT22;7344;50.864;4.362;2023-02-28T07:22:23;2.60;1.00
14517;DHT22;7344;50.864;4.362;2023-02-28T07:24:50;2.80;1.00
14517;DHT22;7344;50.864;4.362;2023-02-28T07:27:15;3.00;1.00
14517;DHT22;7344;50.864;4.362;2023-02-28T07:29:51;3.10;1.00
14517;DHT22;7344;50.864;4.362;2023-02-28T07:32:18;3.00;1.00
14517;DHT22;7344;50.864;4.362;2023-02-28T07:34:44;3.20;1.00
14517;DHT22;7344;50.864;4.362;2023-02-28T07:37:09;3.30;1.00
14517;DHT22;7344;50.864;4.362;2023-02-28T07:39:35;3.70;1.00
14517;DHT22;7344;50.864;4.362;2023-02-28T07:42:04;4.70;99.90
14517;DHT22;7344;50.864;4.362;2023-02-28T07:44:30;5.70;99.90
14517;DHT22;7344;50.864;4.362;2023-02-28T07:46:55;6.50;99.40
14517;DHT22;7344;50.864;4.362;2023-02-28T07:49:21;7.50;99.20
14517;DHT22;7344;50.864;4.362;2023-02-28T07:51:46;8.00;99.90
14517;DHT22;7344;50.864;4.362;2023-02-28T07:54:12;8.00;99.90
14517;DHT22;7344;50.864;4.362;2023-02-28T07:56:38;8.70;58.70
14517;DHT22;7344;50.864;4.362;2023-02-28T07:59:03;8.80;1.00
14517;DHT22;7344;50.864;4.362;2023-02-28T08:01:29;8.60;1.00
14517;DHT22;7344;50.864;4.362;2023-02-28T08:03:54;9.20;1.00
14517;DHT22;7344;50.864;4.362;2023-02-28T08:06:23;9.10;1.00
14517;DHT22;7344;50.864;4.362;2023-02-28T08:08:49;8.70;1.00
14517;DHT22;7344;50.864;4.362;2023-02-28T08:11:15;9.10;1.00
14517;DHT22;7344;50.864;4.362;2023-02-28T08:13:41;8.90;1.00
14517;DHT22;7344;50.864;4.362;2023-02-28T08:16:09;9.30;1.00
14517;DHT22;7344;50.864;4.362;2023-02-28T08:18:35;10.10;1.00
14517;DHT22;7344;50.864;4.362;2023-02-28T08:21:09;10.70;99.90
14517;DHT22;7344;50.864;4.362;2023-02-28T08:23:35;10.40;99.90
14517;DHT22;7344;50.864;4.362;2023-02-28T08:26:01;9.50;99.90
14517;DHT22;7344;50.864;4.362;2023-02-28T08:28:27;8.90;99.90
14517;DHT22;7344;50.864;4.362;2023-02-28T08:30:53;9.60;99.90
14517;DHT22;7344;50.864;4.362;2023-02-28T08:33:19;9.70;99.90
14517;DHT22;7344;50.864;4.362;2023-02-28T08:35:45;8.60;99.90
14517;DHT22;7344;50.864;4.362;2023-02-28T08:38:10;8.90;99.90
14517;DHT22;7344;50.864;4.362;2023-02-28T08:40:36;9.00;99.90
14517;DHT22;7344;50.864;4.362;2023-02-28T08:43:02;8.60;99.90
14517;DHT22;7344;50.864;4.362;2023-02-28T08:45:27;8.20;99.90
14517;DHT22;7344;50.864;4.362;2023-02-28T08:47:54;7.70;99.90
14517;DHT22;7344;50.864;4.362;2023-02-28T08:50:21;7.60;99.90
14517;DHT22;7344;50.864;4.362;2023-02-28T08:52:46;7.70;99.90
14517;DHT22;7344;50.864;4.362;2023-02-28T08:55:12;7.50;99.90
14517;DHT22;7344;50.864;4.362;2023-02-28T08:57:38;6.90;99.90
14517;DHT22;7344;50.864;4.362;2023-02-28T09:00:04;6.20;1.00
14517;DHT22;7344;50.864;4.362;2023-02-28T09:02:31;6.40;1.00
14517;DHT22;7344;50.864;4.362;2023-02-28T09:04:57;6.60;1.00
14517;DHT22;7344;50.864;4.362;2023-02-28T09:07:23;6.90;99.90
14517;DHT22;7344;50.864;4.362;2023-02-28T09:09:49;7.30;99.90
14517;DHT22;7344;50.864;4.362;2023-02-28T09:12:23;7.50;99.90
14517;DHT22;7344;50.864;4.362;2023-02-28T09:14:48;7.80;99.90
14517;DHT22;7344;50.864;4.362;2023-02-28T09:17:14;7.50;99.90
14517;DHT22;7344;50.864;4.362;2023-02-28T09:19:40;8.00;99.90
14517;DHT22;7344;50.864;4.362;2023-02-28T09:22:06;7.90;99.90
14517;DHT22;7344;50.864;4.362;2023-02-28T09:24:31;8.80;99.90
14517;DHT22;7344;50.864;4.362;2023-02-28T09:26:57;9.10;99.90
14517;DHT22;7344;50.864;4.362;2023-02-28T09:29:22;7.50;99.90
14517;DHT22;7344;50.864;4.362;2023-02-28T09:31:48;7.50;99.90
14517;DHT22;7344;50.864;4.362;2023-02-28T09:34:13;8.30;99.90
14517;DHT22;7344;50.864;4.362;2023-02-28T09:36:39;8.10;99.90
14517;DHT22;7344;50.864;4.362;2023-02-28T09:39:05;8.20;99.90
14517;DHT22;7344;50.864;4.362;2023-02-28T09:41:43;7.50;99.90
14517;DHT22;7344;50.864;4.362;2023-02-28T09:44:40;7.10;99.90
14517;DHT22;7344;50.864;4.362;2023-02-28T09:47:29;7.30;99.90
14517;DHT22;7344;50.864;4.362;2023-02-28T09:49:59;7.50;99.90
14517;DHT22;7344;50.864;4.362;2023-02-28T09:52:29;7.20;99.90
14517;DHT22;7344;50.864;4.362;2023-02-28T09:55:18;7.90;99.90
14517;DHT22;7344;50.864;4.362;2023-02-28T09:57:44;7.90;99.90
14517;DHT22;7344;50.864;4.362;2023-02-28T10:08:28;6.80;99.90
14517;DHT22;7344;50.864;4.362;2023-02-28T10:11:01;7.40;99.90
14517;DHT22;7344;50.864;4.362;2023-02-28T10:16:38;7.10;99.90
14517;DHT22;7344;50.864;4.362;2023-02-28T10:19:14;7.20;99.90
14517;DHT22;7344;50.864;4.362;2023-02-28T10:21:49;7.30;99.90
14517;DHT22;7344;50.864;4.362;2023-02-28T10:26:48;7.10;99.90
14517;DHT22;7344;50.864;4.362;2023-02-28T10:29:14;7.70;99.90
14517;DHT22;7344;50.864;4.362;2023-02-28T10:31:40;8.10;99.90
14517;DHT22;7344;50.864;4.362;2023-02-28T10:34:07;7.70;99.90
14517;DHT22;7344;50.864;4.362;2023-02-28T10:36:32;6.90;99.90
14517;DHT22;7344;50.864;4.362;2023-02-28T10:38:58;7.10;99.90
14517;DHT22;7344;50.864;4.362;2023-02-28T10:41:32;7.20;99.90
14517;DHT22;7344;50.864;4.362;2023-02-28T10:44:20;7.10;99.90
14517;DHT22;7344;50.864;4.362;2023-02-28T10:46:46;7.10;99.90
14517;DHT22;7344;50.864;4.362;2023-02-28T10:49:17;7.10;99.90
14517;DHT22;7344;50.864;4.362;2023-02-28T10:51:45;7.80;99.90
14517;DHT22;7344;50.864;4.362;2023-02-28T10:54:22;8.10;99.90
14517;DHT22;7344;50.864;4.362;2023-02-28T10:59:33;7.40;99.90
14517;DHT22;7344;50.864;4.362;2023-02-28T11:01:59;7.40;99.90
14517;DHT22;7344;50.864;4.362;2023-02-28T11:07:06;7.10;99.90
14517;DHT22;7344;50.864;4.362;2023-02-28T11:09:41;7.00;99.90
14517;DHT22;7344;50.864;4.362;2023-02-28T11:12:35;7.00;99.90
14517;DHT22;7344;50.864;4.362;2023-02-28T11:15:05;7.00;99.90
14517;DHT22;7344;50.864;4.362;2023-02-28T11:17:32;6.80;99.90
14517;DHT22;7344;50.864;4.362;2023-02-28T11:20:06;6.70;99.90
14517;DHT22;7344;50.864;4.362;2023-02-28T11:22:36;7.00;99.90
14517;DHT22;7344;50.864;4.362;2023-02-28T11:25:09;6.90;99.90
14517;DHT22;7344;50.864;4.362;2023-02-28T11:30:42;7.20;99.90
14517;DHT22;7344;50.864;4.362;2023-02-28T11:33:53;7.10;99.90
14517;DHT22;7344;50.864;4.362;2023-02-28T11:36:28;6.80;99.90
14517;DHT22;7344;50.864;4.362;2023-02-28T11:38:59;6.70;99.90
14517;DHT22;7344;50.864;4.362;2023-02-28T11:44:05;7.10;99.90
14517;DHT22;7344;50.864;4.362;2023-02-28T12:02:52;7.70;99.90
14517;DHT22;7344;50.864;4.362;2023-02-28T12:08:23;6.90;99.90
14517;DHT22;7344;50.864;4.362;2023-02-28T12:14:36;6.40;99.90
14517;DHT22;7344;50.864;4.362;2023-02-28T12:22:17;5.60;99.90
14517;DHT22;7344;50.864;4.362;2023-02-28T12:25:32;5.90;99.90
14517;DHT22;7344;50.864;4.362;2023-02-28T12:28:01;5.90;99.90
14517;DHT22;7344;50.864;4.362;2023-02-28T12:30:31;6.10;99.90
14517;DHT22;7344;50.864;4.362;2023-02-28T12:33:09;6.30;99.90
14517;DHT22;7344;50.864;4.362;2023-02-28T12:35:41;6.00;99.90
14517;DHT22;7344;50.864;4.362;2023-02-28T12:38:18;5.90;99.90
14517;DHT22;7344;50.864;4.362;2023-02-28T12:40:56;5.70;99.90
14517;DHT22;7344;50.864;4.362;2023-02-28T12:43:27;5.80;99.90
14517;DHT22;7344;50.864;4.362;2023-02-28T12:46:02;6.00;99.90
14517;DHT22;7344;50.864;4.362;2023-02-28T12:51:00;5.80;99.90
14517;DHT22;7344;50.864;4.362;2023-02-28T12:56:08;5.40;99.90
14517;DHT22;7344;50.864;4.362;2023-02-28T12:58:54;5.70;99.90
14517;DHT22;7344;50.864;4.362;2023-02-28T13:01:38;5.80;99.90
14517;DHT22;7344;50.864;4.362;2023-02-28T13:04:29;5.80;99.90
14517;DHT22;7344;50.864;4.362;2023-02-28T13:07:31;5.70;99.90
14517;DHT22;7344;50.864;4.362;2023-02-28T13:10:02;5.50;99.90
14517;DHT22;7344;50.864;4.362;2023-02-28T13:12:28;5.60;99.90
14517;DHT22;7344;50.864;4.362;2023-02-28T13:15:27;5.70;99.90
14517;DHT22;7344;50.864;4.362;2023-02-28T13:17:56;5.70;99.90
14517;DHT22;7344;50.864;4.362;2023-02-28T13:20:24;5.80;99.90
14517;DHT22;7344;50.864;4.362;2023-02-28T13:22:56;5.70;99.90
14517;DHT22;7344;50.864;4.362;2023-02-28T13:27:57;5.90;99.90
14517;DHT22;7344;50.864;4.362;2023-02-28T13:41:42;5.40;99.90
14517;DHT22;7344;50.864;4.362;2023-02-28T13:49:25;5.50;99.90
14517;DHT22;7344;50.864;4.362;2023-02-28T13:57:04;5.70;99.90
14517;DHT22;7344;50.864;4.362;2023-02-28T14:07:30;5.60;99.90
14517;DHT22;7344;50.864;4.362;2023-02-28T14:10:04;5.60;99.90
14517;DHT22;7344;50.864;4.362;2023-02-28T14:12:53;5.40;99.90
14517;DHT22;7344;50.864;4.362;2023-02-28T14:18:19;5.60;99.90
14517;DHT22;7344;50.864;4.362;2023-02-28T14:20:47;5.60;99.90
14517;DHT22;7344;50.864;4.362;2023-02-28T14:26:06;5.50;99.90
14517;DHT22;7344;50.864;4.362;2023-02-28T14:28:45;5.40;99.90
14517;DHT22;7344;50.864;4.362;2023-02-28T14:31:40;5.50;99.90
14517;DHT22;7344;50.864;4.362;2023-02-28T14:37:13;5.50;99.90
14517;DHT22;7344;50.864;4.362;2023-02-28T14:39:42;5.30;99.90
14517;DHT22;7344;50.864;4.362;2023-02-28T14:44:54;5.40;99.90
14517;DHT22;7344;50.864;4.362;2023-02-28T14:47:32;5.40;99.90
14517;DHT22;7344;50.864;4.362;2023-02-28T14:49:59;5.30;99.90
14517;DHT22;7344;50.864;4.362;2023-02-28T14:52:31;5.40;99.90
14517;DHT22;7344;50.864;4.362;2023-02-28T14:55:00;5.40;99.90
14517;DHT22;7344;50.864;4.362;2023-02-28T14:57:32;5.50;99.90
14517;DHT22;7344;50.864;4.362;2023-02-28T15:02:43;5.50;99.90
14517;DHT22;7344;50.864;4.362;2023-02-28T15:07:37;5.40;99.90
14517;DHT22;7344;50.864;4.362;2023-02-28T15:12:37;5.30;99.90
14517;DHT22;7344;50.864;4.362;2023-02-28T15:15:03;5.30;99.90
14517;DHT22;7344;50.864;4.362;2023-02-28T15:17:29;5.30;99.90
14517;DHT22;7344;50.864;4.362;2023-02-28T15:19:55;5.40;99.90
14517;DHT22;7344;50.864;4.362;2023-02-28T15:22:28;5.50;99.90
14517;DHT22;7344;50.864;4.362;2023-02-28T15:24:55;5.50;99.90
14517;DHT22;7344;50.864;4.362;2023-02-28T15:27:27;5.40;99.90
14517;DHT22;7344;50.864;4.362;2023-02-28T15:30:05;5.30;99.90
14517;DHT22;7344;50.864;4.362;2023-02-28T15:32:36;5.40;99.90
14517;DHT22;7344;50.864;4.362;2023-02-28T15:38:03;5.40;99.90
14517;DHT22;7344;50.864;4.362;2023-02-28T15:40:38;5.40;99.90
14517;DHT22;7344;50.864;4.362;2023-02-28T15:43:14;5.40;99.90
14517;DHT22;7344;50.864;4.362;2023-02-28T15:49:02;5.30;99.90
14517;DHT22;7344;50.864;4.362;2023-02-28T15:53:45;5.20;99.90
14517;DHT22;7344;50.864;4.362;2023-02-28T15:56:39;5.30;99.90
14517;DHT22;7344;50.864;4.362;2023-02-28T15:59:14;5.30;99.90
14517;DHT22;7344;50.864;4.362;2023-02-28T16:01:41;5.30;99.90
14517;DHT22;7344;50.864;4.362;2023-02-28T16:04:18;5.30;99.90
14517;DHT22;7344;50.864;4.362;2023-02-28T16:06:45;5.30;99.90
14517;DHT22;7344;50.864;4.362;2023-02-28T16:09:14;5.20;99.90
14517;DHT22;7344;50.864;4.362;2023-02-28T16:11:51;5.20;99.90
14517;DHT22;7344;50.864;4.362;2023-02-28T16:14:23;5.20;99.90
14517;DHT22;7344;50.864;4.362;2023-02-28T16:16:52;5.30;99.90
14517;DHT22;7344;50.864;4.362;2023-02-28T16:19:18;5.30;99.90
14517;DHT22;7344;50.864;4.362;2023-02-28T16:21:45;5.20;99.90
14517;DHT22;7344;50.864;4.362;2023-02-28T16:24:13;5.10;99.90
14517;DHT22;7344;50.864;4.362;2023-02-28T16:26:44;5.10;99.90
14517;DHT22;7344;50.864;4.362;2023-02-28T16:29:23;5.10;99.90
14517;DHT22;7344;50.864;4.362;2023-02-28T16:31:50;5.10;99.90
14517;DHT22;7344;50.864;4.362;2023-02-28T16:34:15;5.10;99.90
14517;DHT22;7344;50.864;4.362;2023-02-28T16:36:41;5.10;99.90
14517;DHT22;7344;50.864;4.362;2023-02-28T16:39:07;5.10;99.90
14517;DHT22;7344;50.864;4.362;2023-02-28T16:41:34;5.00;99.90
14517;DHT22;7344;50.864;4.362;2023-02-28T16:44:00;5.00;99.90
14517;DHT22;7344;50.864;4.362;2023-02-28T16:46:34;5.10;99.90
14517;DHT22;7344;50.864;4.362;2023-02-28T16:49:00;5.00;99.90
14517;DHT22;7344;50.864;4.362;2023-02-28T16:51:26;5.00;99.90
14517;DHT22;7344;50.864;4.362;2023-02-28T16:53:52;4.90;99.90
14517;DHT22;7344;50.864;4.362;2023-02-28T16:56:20;4.90;99.90
14517;DHT22;7344;50.864;4.362;2023-02-28T16:58:46;4.80;99.90
14517;DHT22;7344;50.864;4.362;2023-02-28T17:01:13;4.80;99.90
14517;DHT22;7344;50.864;4.362;2023-02-28T17:03:38;4.80;99.90
14517;DHT22;7344;50.864;4.362;2023-02-28T17:06:08;4.80;99.90
14517;DHT22;7344;50.864;4.362;2023-02-28T17:08:38;4.80;99.90
14517;DHT22;7344;50.864;4.362;2023-02-28T17:11:04;4.80;99.90
14517;DHT22;7344;50.864;4.362;2023-02-28T17:13:30;4.80;99.90
14517;DHT22;7344;50.864;4.362;2023-02-28T17:15:55;4.80;99.90
14517;DHT22;7344;50.864;4.362;2023-02-28T17:18:21;4.70;99.90
14517;DHT22;7344;50.864;4.362;2023-02-28T17:20:47;4.70;99.90
14517;DHT22;7344;50.864;4.362;2023-02-28T17:23:13;4.70;99.90
14517;DHT22;7344;50.864;4.362;2023-02-28T17:25:38;4.70;99.90
14517;DHT22;7344;50.864;4.362;2023-02-28T17:28:04;4.60;99.90
14517;DHT22;7344;50.864;4.362;2023-02-28T17:30:33;4.60;99.90
14517;DHT22;7344;50.864;4.362;2023-02-28T17:32:59;4.50;99.90
14517;DHT22;7344;50.864;4.362;2023-02-28T17:35:24;4.60;99.90
14517;DHT22;7344;50.864;4.362;2023-02-28T17:37:52;4.50;99.90
14517;DHT22;7344;50.864;4.362;2023-02-28T17:40:20;4.50;99.90
14517;DHT22;7344;50.864;4.362;2023-02-28T17:42:46;4.50;99.90
14517;DHT22;7344;50.864;4.362;2023-02-28T17:45:13;4.50;99.90
14517;DHT22;7344;50.864;4.362;2023-02-28T17:47:39;4.40;99.90
14517;DHT22;7344;50.864;4.362;2023-02-28T17:50:05;4.50;99.90
14517;DHT22;7344;50.864;4.362;2023-02-28T17:52:31;4.40;99.90
14517;DHT22;7344;50.864;4.362;2023-02-28T17:55:02;4.40;99.90
14517;DHT22;7344;50.864;4.362;2023-02-28T17:57:28;4.30;99.90
14517;DHT22;7344;50.864;4.362;2023-02-28T17:59:54;4.30;99.90
14517;DHT22;7344;50.864;4.362;2023-02-28T18:02:19;4.30;99.90
14517;DHT22;7344;50.864;4.362;2023-02-28T18:04:45;4.20;1.00
14517;DHT22;7344;50.864;4.362;2023-02-28T18:07:11;4.20;1.00
14517;DHT22;7344;50.864;4.362;2023-02-28T18:09:37;4.20;1.00
14517;DHT22;7344;50.864;4.362;2023-02-28T18:12:02;4.20;1.00
14517;DHT22;7344;50.864;4.362;2023-02-28T18:14:28;4.20;1.00
14517;DHT22;7344;50.864;4.362;2023-02-28T18:16:55;4.20;1.00
14517;DHT22;7344;50.864;4.362;2023-02-28T18:19:22;4.20;1.00
14517;DHT22;7344;50.864;4.362;2023-02-28T18:21:52;4.10;1.00
14517;DHT22;7344;50.864;4.362;2023-02-28T18:24:19;4.10;1.00
14517;DHT22;7344;50.864;4.362;2023-02-28T18:26:45;4.10;1.00
14517;DHT22;7344;50.864;4.362;2023-02-28T18:29:23;4.00;1.00
14517;DHT22;7344;50.864;4.362;2023-02-28T18:31:49;4.00;1.00
14517;DHT22;7344;50.864;4.362;2023-02-28T18:34:15;4.00;1.00
14517;DHT22;7344;50.864;4.362;2023-02-28T18:36:41;3.90;1.00
14517;DHT22;7344;50.864;4.362;2023-02-28T18:39:07;3.90;1.00
14517;DHT22;7344;50.864;4.362;2023-02-28T18:41:33;3.90;1.00
14517;DHT22;7344;50.864;4.362;2023-02-28T18:43:59;3.80;1.00
14517;DHT22;7344;50.864;4.362;2023-02-28T18:46:26;3.80;1.00
14517;DHT22;7344;50.864;4.362;2023-02-28T18:48:52;3.80;1.00
14517;DHT22;7344;50.864;4.362;2023-02-28T18:51:29;3.80;1.00
14517;DHT22;7344;50.864;4.362;2023-02-28T18:53:55;3.70;1.00
14517;DHT22;7344;50.864;4.362;2023-02-28T18:56:23;3.70;1.00